sensor_id;sensor_type;location;lat;lon;timestamp;P1;durP1;ratioP1;P2;durP2;ratioP2
22378;SDS011;11357;49.990;7.370;2022-10-16T00:01:48;105.70;;;57.80;;
22378;SDS011;11357;49.990;7.370;2022-10-16T00:04:13;131.17;;;64.83;;
22378;SDS011;11357;49.990;7.370;2022-10-16T00:06:39;132.70;;;63.67;;
22378;SDS011;11357;49.990;7.370;2022-10-16T00:09:05;121.87;;;61.67;;
22378;SDS011;11357;49.990;7.370;2022-10-16T00:11:32;120.67;;;54.13;;
22378;SDS011;11357;49.990;7.370;2022-10-16T00:14:02;115.20;;;56.87;;
22378;SDS011;11357;49.990;7.370;2022-10-16T00:16:29;135.97;;;59.63;;
22378;SDS011;11357;49.990;7.370;2022-10-16T00:18:55;132.80;;;56.10;;
22378;SDS011;11357;49.990;7.370;2022-10-16T00:21:22;119.87;;;60.37;;
22378;SDS011;11357;49.990;7.370;2022-10-16T00:23:53;126.23;;;55.47;;
22378;SDS011;11357;49.990;7.370;2022-10-16T00:26:21;122.20;;;50.23;;
22378;SDS011;11357;49.990;7.370;2022-10-16T00:28:48;134.40;;;60.43;;
22378;SDS011;11357;49.990;7.370;2022-10-16T00:31:15;104.70;;;53.57;;
22378;SDS011;11357;49.990;7.370;2022-10-16T00:33:41;130.03;;;61.27;;
22378;SDS011;11357;49.990;7.370;2022-10-16T00:36:08;122.17;;;55.07;;
22378;SDS011;11357;49.990;7.370;2022-10-16T00:38:36;126.70;;;54.53;;
22378;SDS011;11357;49.990;7.370;2022-10-16T00:41:03;117.97;;;49.30;;
22378;SDS011;11357;49.990;7.370;2022-10-16T00:45:58;122.97;;;54.80;;
22378;SDS011;11357;49.990;7.370;2022-10-16T00:48:28;100.80;;;61.50;;
22378;SDS011;11357;49.990;7.370;2022-10-16T00:50:54;127.20;;;53.23;;
22378;SDS011;11357;49.990;7.370;2022-10-16T00:53:21;113.40;;;55.83;;
22378;SDS011;11357;49.990;7.370;2022-10-16T00:55:48;141.27;;;57.27;;
22378;SDS011;11357;49.990;7.370;2022-10-16T00:58:13;124.93;;;64.80;;
22378;SDS011;11357;49.990;7.370;2022-10-16T01:00:39;115.37;;;58.40;;
22378;SDS011;11357;49.990;7.370;2022-10-16T01:03:21;134.20;;;55.50;;
22378;SDS011;11357;49.990;7.370;2022-10-16T01:05:51;136.60;;;61.60;;
22378;SDS011;11357;49.990;7.370;2022-10-16T01:08:27;137.77;;;56.23;;
22378;SDS011;11357;49.990;7.370;2022-10-16T01:11:21;119.07;;;62.40;;
22378;SDS011;11357;49.990;7.370;2022-10-16T01:13:57;119.70;;;57.50;;
22378;SDS011;11357;49.990;7.370;2022-10-16T01:19:09;129.53;;;66.33;;
22378;SDS011;11357;49.990;7.370;2022-10-16T01:21:42;122.63;;;47.77;;
22378;SDS011;11357;49.990;7.370;2022-10-16T01:24:28;130.53;;;65.60;;
22378;SDS011;11357;49.990;7.370;2022-10-16T01:27:15;146.40;;;64.17;;
22378;SDS011;11357;49.990;7.370;2022-10-16T01:32:31;133.17;;;62.70;;
22378;SDS011;11357;49.990;7.370;2022-10-16T01:35:00;151.37;;;59.97;;
22378;SDS011;11357;49.990;7.370;2022-10-16T01:37:35;131.07;;;55.33;;
22378;SDS011;11357;49.990;7.370;2022-10-16T01:40:24;136.73;;;67.77;;
22378;SDS011;11357;49.990;7.370;2022-10-16T01:42:53;136.30;;;62.80;;
22378;SDS011;11357;49.990;7.370;2022-10-16T01:45:31;112.07;;;64.87;;
22378;SDS011;11357;49.990;7.370;2022-10-16T01:47:58;143.10;;;61.10;;
22378;SDS011;11357;49.990;7.370;2022-10-16T01:50:29;118.73;;;58.90;;
22378;SDS011;11357;49.990;7.370;2022-10-16T01:52:58;131.43;;;63.33;;
22378;SDS011;11357;49.990;7.370;2022-10-16T01:55:32;141.23;;;58.23;;
22378;SDS011;11357;49.990;7.370;2022-10-16T01:58:01;131.57;;;50.97;;
22378;SDS011;11357;49.990;7.370;2022-10-16T02:00:29;139.03;;;55.43;;
22378;SDS011;11357;49.990;7.370;2022-10-16T02:02:55;134.50;;;56.10;;
22378;SDS011;11357;49.990;7.370;2022-10-16T02:05:26;146.93;;;52.43;;
22378;SDS011;11357;49.990;7.370;2022-10-16T02:08:01;105.33;;;57.17;;
22378;SDS011;11357;49.990;7.370;2022-10-16T02:10:27;132.90;;;62.17;;
22378;SDS011;11357;49.990;7.370;2022-10-16T02:13:03;142.57;;;50.13;;
22378;SDS011;11357;49.990;7.370;2022-10-16T02:15:33;102.43;;;51.77;;
22378;SDS011;11357;49.990;7.370;2022-10-16T02:17:59;131.37;;;54.93;;
22378;SDS011;11357;49.990;7.370;2022-10-16T02:20:28;126.33;;;57.83;;
22378;SDS011;11357;49.990;7.370;2022-10-16T02:22:58;105.43;;;60.90;;
22378;SDS011;11357;49.990;7.370;2022-10-16T02:25:36;132.60;;;54.33;;
22378;SDS011;11357;49.990;7.370;2022-10-16T02:28:27;124.33;;;61.87;;
22378;SDS011;11357;49.990;7.370;2022-10-16T02:30:58;129.20;;;62.83;;
22378;SDS011;11357;49.990;7.370;2022-10-16T02:33:28;124.27;;;53.80;;
22378;SDS011;11357;49.990;7.370;2022-10-16T02:35:55;122.80;;;58.53;;
22378;SDS011;11357;49.990;7.370;2022-10-16T02:38:22;107.50;;;58.90;;
22378;SDS011;11357;49.990;7.370;2022-10-16T02:40:50;131.37;;;57.67;;
22378;SDS011;11357;49.990;7.370;2022-10-16T02:43:16;112.33;;;53.50;;
22378;SDS011;11357;49.990;7.370;2022-10-16T02:45:42;116.33;;;61.43;;
22378;SDS011;11357;49.990;7.370;2022-10-16T02:48:08;120.53;;;59.00;;
22378;SDS011;11357;49.990;7.370;2022-10-16T02:50:33;115.33;;;58.10;;
22378;SDS011;11357;49.990;7.370;2022-10-16T02:52:59;126.03;;;64.40;;
22378;SDS011;11357;49.990;7.370;2022-10-16T02:55:25;125.17;;;61.43;;
22378;SDS011;11357;49.990;7.370;2022-10-16T02:57:51;129.97;;;63.33;;
22378;SDS011;11357;49.990;7.370;2022-10-16T03:00:17;132.80;;;59.20;;
22378;SDS011;11357;49.990;7.370;2022-10-16T03:03:07;123.07;;;54.97;;
22378;SDS011;11357;49.990;7.370;2022-10-16T03:05:43;136.20;;;62.33;;
22378;SDS011;11357;49.990;7.370;2022-10-16T03:08:10;137.87;;;52.50;;
22378;SDS011;11357;49.990;7.370;2022-10-16T03:10:37;153.90;;;68.90;;
22378;SDS011;11357;49.990;7.370;2022-10-16T03:13:02;129.23;;;58.13;;
22378;SDS011;11357;49.990;7.370;2022-10-16T03:15:28;103.50;;;59.70;;
22378;SDS011;11357;49.990;7.370;2022-10-16T03:17:54;113.53;;;59.43;;
22378;SDS011;11357;49.990;7.370;2022-10-16T03:20:20;127.43;;;58.97;;
22378;SDS011;11357;49.990;7.370;2022-10-16T03:22:45;121.07;;;59.03;;
22378;SDS011;11357;49.990;7.370;2022-10-16T03:25:11;153.40;;;62.53;;
22378;SDS011;11357;49.990;7.370;2022-10-16T03:27:37;99.27;;;52.43;;
22378;SDS011;11357;49.990;7.370;2022-10-16T03:30:02;129.27;;;57.33;;
22378;SDS011;11357;49.990;7.370;2022-10-16T03:32:28;126.53;;;66.10;;
22378;SDS011;11357;49.990;7.370;2022-10-16T03:34:54;138.03;;;65.20;;
22378;SDS011;11357;49.990;7.370;2022-10-16T03:37:21;134.53;;;57.07;;
22378;SDS011;11357;49.990;7.370;2022-10-16T03:39:46;136.40;;;60.77;;
22378;SDS011;11357;49.990;7.370;2022-10-16T03:42:12;116.33;;;65.33;;
22378;SDS011;11357;49.990;7.370;2022-10-16T03:44:38;140.07;;;52.80;;
22378;SDS011;11357;49.990;7.370;2022-10-16T03:47:03;160.40;;;58.77;;
22378;SDS011;11357;49.990;7.370;2022-10-16T03:49:29;121.40;;;55.23;;
22378;SDS011;11357;49.990;7.370;2022-10-16T03:51:55;124.57;;;61.33;;
22378;SDS011;11357;49.990;7.370;2022-10-16T03:54:20;124.20;;;64.10;;
22378;SDS011;11357;49.990;7.370;2022-10-16T03:56:47;122.00;;;54.93;;
22378;SDS011;11357;49.990;7.370;2022-10-16T03:59:13;114.03;;;60.13;;
22378;SDS011;11357;49.990;7.370;2022-10-16T04:01:38;111.90;;;57.13;;
22378;SDS011;11357;49.990;7.370;2022-10-16T04:04:04;117.17;;;58.30;;
22378;SDS011;11357;49.990;7.370;2022-10-16T04:06:30;133.23;;;56.13;;
22378;SDS011;11357;49.990;7.370;2022-10-16T04:08:55;103.07;;;59.00;;
22378;SDS011;11357;49.990;7.370;2022-10-16T04:11:21;136.63;;;61.23;;
22378;SDS011;11357;49.990;7.370;2022-10-16T04:13:47;117.37;;;55.40;;
22378;SDS011;11357;49.990;7.370;2022-10-16T04:16:13;101.30;;;55.90;;
22378;SDS011;11357;49.990;7.370;2022-10-16T04:18:39;115.17;;;49.57;;
22378;SDS011;11357;49.990;7.370;2022-10-16T04:21:04;107.17;;;62.37;;
22378;SDS011;11357;49.990;7.370;2022-10-16T04:23:31;127.13;;;53.23;;
22378;SDS011;11357;49.990;7.370;2022-10-16T04:25:57;109.40;;;58.77;;
22378;SDS011;11357;49.990;7.370;2022-10-16T04:28:24;95.77;;;43.47;;
22378;SDS011;11357;49.990;7.370;2022-10-16T04:30:49;116.27;;;61.37;;
22378;SDS011;11357;49.990;7.370;2022-10-16T04:33:15;128.43;;;53.00;;
22378;SDS011;11357;49.990;7.370;2022-10-16T04:35:41;129.33;;;53.87;;
22378;SDS011;11357;49.990;7.370;2022-10-16T04:38:06;130.20;;;58.13;;
22378;SDS011;11357;49.990;7.370;2022-10-16T04:40:32;118.90;;;50.43;;
22378;SDS011;11357;49.990;7.370;2022-10-16T04:43:00;103.27;;;50.17;;
22378;SDS011;11357;49.990;7.370;2022-10-16T04:45:26;108.83;;;55.33;;
22378;SDS011;11357;49.990;7.370;2022-10-16T04:47:51;101.97;;;50.47;;
22378;SDS011;11357;49.990;7.370;2022-10-16T04:50:17;126.13;;;56.40;;
22378;SDS011;11357;49.990;7.370;2022-10-16T04:52:42;114.30;;;51.63;;
22378;SDS011;11357;49.990;7.370;2022-10-16T04:55:08;134.53;;;48.47;;
22378;SDS011;11357;49.990;7.370;2022-10-16T04:57:34;144.37;;;46.20;;
22378;SDS011;11357;49.990;7.370;2022-10-16T04:59:59;119.07;;;54.30;;
22378;SDS011;11357;49.990;7.370;2022-10-16T05:02:25;115.23;;;50.60;;
22378;SDS011;11357;49.990;7.370;2022-10-16T05:04:51;147.37;;;51.73;;
22378;SDS011;11357;49.990;7.370;2022-10-16T05:07:17;146.20;;;50.77;;
22378;SDS011;11357;49.990;7.370;2022-10-16T05:09:43;144.77;;;53.47;;
22378;SDS011;11357;49.990;7.370;2022-10-16T05:12:08;100.50;;;49.43;;
22378;SDS011;11357;49.990;7.370;2022-10-16T05:14:34;112.23;;;52.87;;
22378;SDS011;11357;49.990;7.370;2022-10-16T05:17:00;129.50;;;53.03;;
22378;SDS011;11357;49.990;7.370;2022-10-16T05:19:25;111.43;;;48.03;;
22378;SDS011;11357;49.990;7.370;2022-10-16T05:21:51;124.37;;;51.23;;
22378;SDS011;11357;49.990;7.370;2022-10-16T05:24:17;126.23;;;46.10;;
22378;SDS011;11357;49.990;7.370;2022-10-16T05:26:42;113.97;;;49.17;;
22378;SDS011;11357;49.990;7.370;2022-10-16T05:29:08;132.13;;;47.27;;
22378;SDS011;11357;49.990;7.370;2022-10-16T05:31:34;136.97;;;50.07;;
22378;SDS011;11357;49.990;7.370;2022-10-16T05:34:00;105.63;;;45.70;;
22378;SDS011;11357;49.990;7.370;2022-10-16T05:36:26;139.57;;;41.13;;
22378;SDS011;11357;49.990;7.370;2022-10-16T05:38:52;123.53;;;44.10;;
22378;SDS011;11357;49.990;7.370;2022-10-16T05:41:18;96.20;;;43.23;;
22378;SDS011;11357;49.990;7.370;2022-10-16T05:43:48;112.20;;;46.83;;
22378;SDS011;11357;49.990;7.370;2022-10-16T05:46:14;116.97;;;48.83;;
22378;SDS011;11357;49.990;7.370;2022-10-16T05:48:41;118.23;;;44.23;;
22378;SDS011;11357;49.990;7.370;2022-10-16T05:51:07;117.30;;;44.13;;
22378;SDS011;11357;49.990;7.370;2022-10-16T05:53:36;101.67;;;40.00;;
22378;SDS011;11357;49.990;7.370;2022-10-16T05:56:04;109.40;;;39.07;;
22378;SDS011;11357;49.990;7.370;2022-10-16T05:58:33;101.70;;;39.70;;
22378;SDS011;11357;49.990;7.370;2022-10-16T06:03:28;111.33;;;40.23;;
22378;SDS011;11357;49.990;7.370;2022-10-16T06:05:54;106.70;;;44.53;;
22378;SDS011;11357;49.990;7.370;2022-10-16T06:08:20;103.03;;;44.93;;
22378;SDS011;11357;49.990;7.370;2022-10-16T06:10:47;91.60;;;43.93;;
22378;SDS011;11357;49.990;7.370;2022-10-16T06:13:13;115.33;;;37.37;;
22378;SDS011;11357;49.990;7.370;2022-10-16T06:15:40;102.30;;;40.30;;
22378;SDS011;11357;49.990;7.370;2022-10-16T06:18:07;92.50;;;44.30;;
22378;SDS011;11357;49.990;7.370;2022-10-16T06:20:34;83.13;;;35.83;;
22378;SDS011;11357;49.990;7.370;2022-10-16T06:22:59;89.97;;;39.30;;
22378;SDS011;11357;49.990;7.370;2022-10-16T06:25:25;97.17;;;35.17;;
22378;SDS011;11357;49.990;7.370;2022-10-16T06:27:51;83.83;;;38.57;;
22378;SDS011;11357;49.990;7.370;2022-10-16T06:30:16;94.43;;;34.83;;
22378;SDS011;11357;49.990;7.370;2022-10-16T06:32:42;125.40;;;41.37;;
22378;SDS011;11357;49.990;7.370;2022-10-16T06:35:08;88.93;;;38.97;;
22378;SDS011;11357;49.990;7.370;2022-10-16T06:37:33;108.27;;;40.83;;
22378;SDS011;11357;49.990;7.370;2022-10-16T06:39:59;115.63;;;38.43;;
22378;SDS011;11357;49.990;7.370;2022-10-16T06:42:25;113.80;;;36.17;;
22378;SDS011;11357;49.990;7.370;2022-10-16T06:44:50;126.33;;;40.50;;
22378;SDS011;11357;49.990;7.370;2022-10-16T06:47:16;97.23;;;36.57;;
22378;SDS011;11357;49.990;7.370;2022-10-16T06:49:42;115.53;;;49.10;;
22378;SDS011;11357;49.990;7.370;2022-10-16T06:52:08;100.63;;;45.23;;
22378;SDS011;11357;49.990;7.370;2022-10-16T06:54:33;90.13;;;35.07;;
22378;SDS011;11357;49.990;7.370;2022-10-16T06:56:59;87.90;;;36.80;;
22378;SDS011;11357;49.990;7.370;2022-10-16T06:59:26;125.47;;;51.60;;
22378;SDS011;11357;49.990;7.370;2022-10-16T07:01:52;99.60;;;41.00;;
22378;SDS011;11357;49.990;7.370;2022-10-16T07:04:18;108.67;;;36.83;;
22378;SDS011;11357;49.990;7.370;2022-10-16T07:06:43;103.23;;;36.33;;
22378;SDS011;11357;49.990;7.370;2022-10-16T07:09:09;93.60;;;38.03;;
22378;SDS011;11357;49.990;7.370;2022-10-16T07:11:36;106.93;;;44.77;;
22378;SDS011;11357;49.990;7.370;2022-10-16T07:14:03;87.73;;;43.63;;
22378;SDS011;11357;49.990;7.370;2022-10-16T07:16:31;111.60;;;49.43;;
22378;SDS011;11357;49.990;7.370;2022-10-16T07:18:58;92.03;;;48.77;;
22378;SDS011;11357;49.990;7.370;2022-10-16T07:21:26;102.87;;;40.87;;
22378;SDS011;11357;49.990;7.370;2022-10-16T07:24:00;91.47;;;35.93;;
22378;SDS011;11357;49.990;7.370;2022-10-16T07:26:27;99.47;;;35.40;;
22378;SDS011;11357;49.990;7.370;2022-10-16T07:28:55;134.37;;;40.60;;
22378;SDS011;11357;49.990;7.370;2022-10-16T07:31:21;104.17;;;38.90;;
22378;SDS011;11357;49.990;7.370;2022-10-16T07:33:48;93.53;;;35.57;;
22378;SDS011;11357;49.990;7.370;2022-10-16T07:36:15;118.57;;;40.17;;
22378;SDS011;11357;49.990;7.370;2022-10-16T07:38:43;93.13;;;37.20;;
22378;SDS011;11357;49.990;7.370;2022-10-16T07:41:09;110.03;;;40.70;;
22378;SDS011;11357;49.990;7.370;2022-10-16T07:43:37;80.73;;;32.67;;
22378;SDS011;11357;49.990;7.370;2022-10-16T07:46:02;94.23;;;37.67;;
22378;SDS011;11357;49.990;7.370;2022-10-16T07:48:29;89.57;;;35.70;;
22378;SDS011;11357;49.990;7.370;2022-10-16T07:50:57;90.17;;;36.70;;
22378;SDS011;11357;49.990;7.370;2022-10-16T07:53:24;78.43;;;34.57;;
22378;SDS011;11357;49.990;7.370;2022-10-16T07:55:50;99.37;;;35.70;;
22378;SDS011;11357;49.990;7.370;2022-10-16T07:58:15;102.53;;;38.17;;
22378;SDS011;11357;49.990;7.370;2022-10-16T08:00:41;83.40;;;32.57;;
22378;SDS011;11357;49.990;7.370;2022-10-16T08:03:07;82.20;;;34.97;;
22378;SDS011;11357;49.990;7.370;2022-10-16T08:05:33;85.70;;;34.87;;
22378;SDS011;11357;49.990;7.370;2022-10-16T08:07:59;101.83;;;37.67;;
22378;SDS011;11357;49.990;7.370;2022-10-16T08:10:27;92.70;;;34.10;;
22378;SDS011;11357;49.990;7.370;2022-10-16T08:12:53;107.90;;;32.53;;
22378;SDS011;11357;49.990;7.370;2022-10-16T08:15:19;92.03;;;35.20;;
22378;SDS011;11357;49.990;7.370;2022-10-16T08:17:58;88.60;;;37.50;;
22378;SDS011;11357;49.990;7.370;2022-10-16T08:20:26;78.87;;;30.30;;
22378;SDS011;11357;49.990;7.370;2022-10-16T08:22:52;96.67;;;30.23;;
22378;SDS011;11357;49.990;7.370;2022-10-16T08:25:19;83.80;;;31.10;;
22378;SDS011;11357;49.990;7.370;2022-10-16T08:27:46;106.10;;;32.97;;
22378;SDS011;11357;49.990;7.370;2022-10-16T08:30:12;94.40;;;35.80;;
22378;SDS011;11357;49.990;7.370;2022-10-16T08:32:38;85.83;;;34.30;;
22378;SDS011;11357;49.990;7.370;2022-10-16T08:35:04;92.93;;;29.17;;
22378;SDS011;11357;49.990;7.370;2022-10-16T08:37:32;128.40;;;34.17;;
22378;SDS011;11357;49.990;7.370;2022-10-16T08:39:58;158.87;;;42.30;;
22378;SDS011;11357;49.990;7.370;2022-10-16T08:45:05;92.47;;;28.87;;
22378;SDS011;11357;49.990;7.370;2022-10-16T08:47:46;91.67;;;29.93;;
22378;SDS011;11357;49.990;7.370;2022-10-16T08:50:26;80.10;;;25.97;;
22378;SDS011;11357;49.990;7.370;2022-10-16T08:52:54;104.13;;;30.13;;
22378;SDS011;11357;49.990;7.370;2022-10-16T08:57:59;123.53;;;30.77;;
22378;SDS011;11357;49.990;7.370;2022-10-16T09:00:25;92.70;;;27.87;;
22378;SDS011;11357;49.990;7.370;2022-10-16T09:05:49;82.67;;;28.77;;
22378;SDS011;11357;49.990;7.370;2022-10-16T09:19:45;83.43;;;24.37;;
22378;SDS011;11357;49.990;7.370;2022-10-16T09:22:16;82.20;;;26.63;;
22378;SDS011;11357;49.990;7.370;2022-10-16T09:24:43;97.90;;;27.87;;
22378;SDS011;11357;49.990;7.370;2022-10-16T09:27:12;118.53;;;24.23;;
22378;SDS011;11357;49.990;7.370;2022-10-16T09:29:39;113.07;;;32.20;;
22378;SDS011;11357;49.990;7.370;2022-10-16T09:32:12;94.77;;;33.17;;
22378;SDS011;11357;49.990;7.370;2022-10-16T09:34:43;86.33;;;26.33;;
22378;SDS011;11357;49.990;7.370;2022-10-16T09:37:13;72.93;;;24.87;;
22378;SDS011;11357;49.990;7.370;2022-10-16T09:44:49;80.43;;;29.17;;
22378;SDS011;11357;49.990;7.370;2022-10-16T09:47:21;62.57;;;24.73;;
22378;SDS011;11357;49.990;7.370;2022-10-16T09:49:51;84.57;;;28.03;;
22378;SDS011;11357;49.990;7.370;2022-10-16T09:52:18;81.13;;;25.97;;
22378;SDS011;11357;49.990;7.370;2022-10-16T09:57:16;71.87;;;27.47;;
22378;SDS011;11357;49.990;7.370;2022-10-16T09:59:51;68.50;;;25.95;;
22378;SDS011;11357;49.990;7.370;2022-10-16T10:02:19;94.17;;;32.57;;
22378;SDS011;11357;49.990;7.370;2022-10-16T10:04:56;66.40;;;24.60;;
22378;SDS011;11357;49.990;7.370;2022-10-16T10:07:32;97.87;;;29.17;;
22378;SDS011;11357;49.990;7.370;2022-10-16T10:10:03;87.93;;;29.30;;
22378;SDS011;11357;49.990;7.370;2022-10-16T10:12:30;83.50;;;26.27;;
22378;SDS011;11357;49.990;7.370;2022-10-16T10:15:02;71.90;;;25.40;;
22378;SDS011;11357;49.990;7.370;2022-10-16T10:17:31;75.17;;;24.83;;
22378;SDS011;11357;49.990;7.370;2022-10-16T10:19:58;84.25;;;26.02;;
22378;SDS011;11357;49.990;7.370;2022-10-16T10:22:41;89.65;;;26.38;;
22378;SDS011;11357;49.990;7.370;2022-10-16T10:38:51;82.50;;;29.42;;
22378;SDS011;11357;49.990;7.370;2022-10-16T10:41:27;100.65;;;29.23;;
22378;SDS011;11357;49.990;7.370;2022-10-16T10:44:23;82.30;;;29.60;;
22378;SDS011;11357;49.990;7.370;2022-10-16T10:53:11;94.10;;;26.50;;
22378;SDS011;11357;49.990;7.370;2022-10-16T10:56:03;74.07;;;29.17;;
22378;SDS011;11357;49.990;7.370;2022-10-16T11:07:15;84.38;;;31.88;;
22378;SDS011;11357;49.990;7.370;2022-10-16T11:10:03;135.95;;;36.70;;
22378;SDS011;11357;49.990;7.370;2022-10-16T11:12:39;107.15;;;38.38;;
22378;SDS011;11357;49.990;7.370;2022-10-16T11:17:38;117.00;;;45.53;;
22378;SDS011;11357;49.990;7.370;2022-10-16T11:20:18;124.70;;;38.15;;
22378;SDS011;11357;49.990;7.370;2022-10-16T11:22:55;112.13;;;35.35;;
22378;SDS011;11357;49.990;7.370;2022-10-16T11:25:42;92.35;;;34.78;;
22378;SDS011;11357;49.990;7.370;2022-10-16T11:28:17;145.93;;;49.10;;
22378;SDS011;11357;49.990;7.370;2022-10-16T11:31:11;133.43;;;41.55;;
22378;SDS011;11357;49.990;7.370;2022-10-16T11:33:44;102.80;;;39.50;;
22378;SDS011;11357;49.990;7.370;2022-10-16T11:36:25;132.98;;;40.28;;
22378;SDS011;11357;49.990;7.370;2022-10-16T11:39:05;108.28;;;42.08;;
22378;SDS011;11357;49.990;7.370;2022-10-16T11:42:05;142.05;;;44.38;;
22378;SDS011;11357;49.990;7.370;2022-10-16T11:44:42;124.63;;;37.72;;
22378;SDS011;11357;49.990;7.370;2022-10-16T11:52:57;104.95;;;30.90;;
22378;SDS011;11357;49.990;7.370;2022-10-16T11:55:40;167.02;;;38.65;;
22378;SDS011;11357;49.990;7.370;2022-10-16T11:58:09;119.55;;;36.03;;
22378;SDS011;11357;49.990;7.370;2022-10-16T12:03:26;135.90;;;42.72;;
22378;SDS011;11357;49.990;7.370;2022-10-16T12:06:02;86.15;;;32.92;;
22378;SDS011;11357;49.990;7.370;2022-10-16T12:08:36;88.72;;;34.97;;
22378;SDS011;11357;49.990;7.370;2022-10-16T12:11:09;69.80;;;26.35;;
22378;SDS011;11357;49.990;7.370;2022-10-16T12:16:38;112.82;;;36.47;;
22378;SDS011;11357;49.990;7.370;2022-10-16T12:19:19;80.30;;;29.83;;
22378;SDS011;11357;49.990;7.370;2022-10-16T12:21:45;81.15;;;33.53;;
22378;SDS011;11357;49.990;7.370;2022-10-16T12:26:56;103.75;;;28.48;;
22378;SDS011;11357;49.990;7.370;2022-10-16T12:29:31;100.30;;;30.55;;
22378;SDS011;11357;49.990;7.370;2022-10-16T12:32:19;107.70;;;28.58;;
22378;SDS011;11357;49.990;7.370;2022-10-16T12:35:03;83.00;;;27.80;;
22378;SDS011;11357;49.990;7.370;2022-10-16T12:37:34;97.18;;;35.03;;
22378;SDS011;11357;49.990;7.370;2022-10-16T12:42:46;114.72;;;33.35;;
22378;SDS011;11357;49.990;7.370;2022-10-16T12:48:20;115.47;;;30.60;;
22378;SDS011;11357;49.990;7.370;2022-10-16T12:50:47;90.88;;;33.08;;
22378;SDS011;11357;49.990;7.370;2022-10-16T12:53:31;92.10;;;29.38;;
22378;SDS011;11357;49.990;7.370;2022-10-16T13:06:35;68.88;;;25.00;;
22378;SDS011;11357;49.990;7.370;2022-10-16T13:14:48;115.43;;;34.05;;
22378;SDS011;11357;49.990;7.370;2022-10-16T13:17:31;93.00;;;30.92;;
22378;SDS011;11357;49.990;7.370;2022-10-16T13:20:47;93.97;;;30.00;;
22378;SDS011;11357;49.990;7.370;2022-10-16T13:28:10;93.05;;;29.50;;
22378;SDS011;11357;49.990;7.370;2022-10-16T13:30:58;91.90;;;31.58;;
22378;SDS011;11357;49.990;7.370;2022-10-16T13:33:36;113.97;;;30.05;;
22378;SDS011;11357;49.990;7.370;2022-10-16T13:36:04;112.70;;;30.42;;
22378;SDS011;11357;49.990;7.370;2022-10-16T13:38:32;141.52;;;32.08;;
22378;SDS011;11357;49.990;7.370;2022-10-16T13:41:00;100.25;;;27.70;;
22378;SDS011;11357;49.990;7.370;2022-10-16T13:46:11;104.38;;;31.92;;
22378;SDS011;11357;49.990;7.370;2022-10-16T13:48:39;82.32;;;26.60;;
22378;SDS011;11357;49.990;7.370;2022-10-16T13:53:43;101.53;;;31.70;;
22378;SDS011;11357;49.990;7.370;2022-10-16T13:56:14;122.38;;;32.65;;
22378;SDS011;11357;49.990;7.370;2022-10-16T13:58:41;108.80;;;31.27;;
22378;SDS011;11357;49.990;7.370;2022-10-16T14:01:18;92.30;;;28.83;;
22378;SDS011;11357;49.990;7.370;2022-10-16T14:03:48;77.03;;;26.02;;
22378;SDS011;11357;49.990;7.370;2022-10-16T14:06:16;102.70;;;26.55;;
22378;SDS011;11357;49.990;7.370;2022-10-16T14:08:48;90.07;;;29.27;;
22378;SDS011;11357;49.990;7.370;2022-10-16T14:11:21;98.63;;;40.13;;
22378;SDS011;11357;49.990;7.370;2022-10-16T14:13:48;80.38;;;29.45;;
22378;SDS011;11357;49.990;7.370;2022-10-16T14:16:16;88.60;;;29.33;;
22378;SDS011;11357;49.990;7.370;2022-10-16T14:19:20;78.93;;;32.40;;
22378;SDS011;11357;49.990;7.370;2022-10-16T14:21:45;81.40;;;32.75;;
22378;SDS011;11357;49.990;7.370;2022-10-16T14:24:33;92.90;;;29.65;;
22378;SDS011;11357;49.990;7.370;2022-10-16T14:26:58;70.82;;;27.88;;
22378;SDS011;11357;49.990;7.370;2022-10-16T14:29:26;78.93;;;25.70;;
22378;SDS011;11357;49.990;7.370;2022-10-16T14:32:00;75.70;;;29.52;;
22378;SDS011;11357;49.990;7.370;2022-10-16T14:34:28;100.65;;;32.38;;
22378;SDS011;11357;49.990;7.370;2022-10-16T14:36:58;89.88;;;29.40;;
22378;SDS011;11357;49.990;7.370;2022-10-16T14:39:50;106.50;;;27.52;;
22378;SDS011;11357;49.990;7.370;2022-10-16T14:42:17;84.03;;;27.00;;
22378;SDS011;11357;49.990;7.370;2022-10-16T14:44:45;82.45;;;25.60;;
22378;SDS011;11357;49.990;7.370;2022-10-16T14:47:16;94.35;;;25.70;;
22378;SDS011;11357;49.990;7.370;2022-10-16T14:49:48;80.70;;;30.85;;
22378;SDS011;11357;49.990;7.370;2022-10-16T14:52:14;72.22;;;26.27;;
22378;SDS011;11357;49.990;7.370;2022-10-16T14:54:40;61.22;;;21.92;;
22378;SDS011;11357;49.990;7.370;2022-10-16T14:57:15;87.28;;;28.38;;
22378;SDS011;11357;49.990;7.370;2022-10-16T14:59:45;73.75;;;25.02;;
22378;SDS011;11357;49.990;7.370;2022-10-16T15:04:55;105.38;;;24.70;;
22378;SDS011;11357;49.990;7.370;2022-10-16T15:07:21;74.57;;;26.92;;
22378;SDS011;11357;49.990;7.370;2022-10-16T15:09:47;76.72;;;29.77;;
22378;SDS011;11357;49.990;7.370;2022-10-16T15:12:13;76.72;;;27.17;;
22378;SDS011;11357;49.990;7.370;2022-10-16T15:14:39;79.05;;;31.00;;
22378;SDS011;11357;49.990;7.370;2022-10-16T15:17:04;77.80;;;28.63;;
22378;SDS011;11357;49.990;7.370;2022-10-16T15:19:30;62.80;;;23.92;;
22378;SDS011;11357;49.990;7.370;2022-10-16T15:21:56;80.65;;;23.55;;
22378;SDS011;11357;49.990;7.370;2022-10-16T15:24:21;70.82;;;27.67;;
22378;SDS011;11357;49.990;7.370;2022-10-16T15:26:47;70.65;;;25.38;;
22378;SDS011;11357;49.990;7.370;2022-10-16T15:29:14;66.53;;;24.83;;
22378;SDS011;11357;49.990;7.370;2022-10-16T15:31:40;98.45;;;26.67;;
22378;SDS011;11357;49.990;7.370;2022-10-16T15:34:12;79.07;;;27.10;;
22378;SDS011;11357;49.990;7.370;2022-10-16T15:36:38;73.75;;;27.48;;
22378;SDS011;11357;49.990;7.370;2022-10-16T15:39:18;70.45;;;24.65;;
22378;SDS011;11357;49.990;7.370;2022-10-16T15:41:45;76.68;;;26.75;;
22378;SDS011;11357;49.990;7.370;2022-10-16T15:44:15;68.68;;;25.58;;
22378;SDS011;11357;49.990;7.370;2022-10-16T15:46:41;71.63;;;27.98;;
22378;SDS011;11357;49.990;7.370;2022-10-16T15:49:07;78.65;;;29.88;;
22378;SDS011;11357;49.990;7.370;2022-10-16T15:51:34;83.95;;;31.70;;
22378;SDS011;11357;49.990;7.370;2022-10-16T15:54:03;80.25;;;29.27;;
22378;SDS011;11357;49.990;7.370;2022-10-16T15:56:29;100.63;;;28.98;;
22378;SDS011;11357;49.990;7.370;2022-10-16T15:58:58;84.15;;;31.35;;
22378;SDS011;11357;49.990;7.370;2022-10-16T16:01:24;81.18;;;29.83;;
22378;SDS011;11357;49.990;7.370;2022-10-16T16:03:53;85.50;;;30.98;;
22378;SDS011;11357;49.990;7.370;2022-10-16T16:06:20;76.45;;;28.20;;
22378;SDS011;11357;49.990;7.370;2022-10-16T16:08:46;79.47;;;30.73;;
22378;SDS011;11357;49.990;7.370;2022-10-16T16:11:13;115.63;;;28.33;;
22378;SDS011;11357;49.990;7.370;2022-10-16T16:13:40;74.60;;;29.50;;
22378;SDS011;11357;49.990;7.370;2022-10-16T16:16:07;83.70;;;29.23;;
22378;SDS011;11357;49.990;7.370;2022-10-16T16:18:35;84.95;;;28.88;;
22378;SDS011;11357;49.990;7.370;2022-10-16T16:21:01;77.20;;;29.27;;
22378;SDS011;11357;49.990;7.370;2022-10-16T16:23:26;102.00;;;28.23;;
22378;SDS011;11357;49.990;7.370;2022-10-16T16:26:02;87.93;;;27.92;;